.
WxDataArchive / Data Records for 2006-07-11
2006-07-10 July 2006 2006-07-12

Data Records for Tuesday, 11 July 2006

Time	Temp	Chill	HIndex	Humid	Dewpt	 Wind 	HiWind	WindDir	Rain 	Barom 
-----	----	-----	------	-----	-----	------	------	-------	-----	----- 
00:00	72.8	72.8	72.8	84	67.7	0	0	---	0.00	29.924 
00:05	72.7	72.7	72.7	84	67.6	0	0	---	0.00	29.924 
00:10	72.3	72.3	72.3	85	67.5	0	0	---	0.00	29.924 
00:15	72.1	72.1	72.1	86	67.7	0	0	---	0.00	29.921 
00:20	72.0	72.0	72.0	86	67.6	0	0	---	0.00	29.921 
00:25	71.6	71.6	71.6	86	67.2	0	0	---	0.00	29.921 
00:30	71.5	71.5	71.5	86	67.1	0	0	---	0.00	29.923 
00:35	71.3	71.3	71.3	87	67.2	0	0	---	0.00	29.923 
00:40	70.9	70.9	70.9	86	66.5	0	0	---	0.00	29.923 
00:45	70.8	70.8	70.8	87	66.7	0	0	---	0.00	29.924 
00:50	70.6	70.6	70.6	88	66.9	0	0	---	0.00	29.924 
00:55	70.4	70.4	70.4	88	66.7	0	0	---	0.00	29.924 
01:00	70.3	70.3	70.3	89	66.9	0	0	---	0.00	29.930 
01:05	70.1	70.1	70.1	89	66.7	0	0	---	0.00	29.930 
01:10	69.9	69.9	69.9	89	66.5	0	0	---	0.00	29.930 
01:15	69.9	69.9	69.9	89	66.5	0	0	---	0.00	29.931 
01:20	69.8	69.8	69.8	90	66.7	0	0	---	0.00	29.931 
01:25	69.6	69.6	69.6	90	66.5	0	0	---	0.00	29.931 
01:30	69.6	69.6	69.6	90	66.5	0	0	---	0.00	29.927 
01:35	69.4	69.4	69.4	90	66.3	0	0	---	0.00	29.927 
01:40	69.3	69.3	69.3	90	66.2	0	0	---	0.00	29.927 
01:45	69.1	69.1	69.1	90	66.0	0	0	---	0.00	29.928 
01:50	69.1	69.1	69.1	90	66.0	0	0	---	0.00	29.928 
01:55	68.9	68.9	68.9	90	65.8	0	0	---	0.00	29.928 
02:00	68.8	68.8	68.8	91	66.1	0	0	---	0.00	29.926 
02:05	68.8	68.8	68.8	91	66.1	0	0	---	0.00	29.926 
02:10	68.6	68.6	68.6	91	65.9	0	0	---	0.00	29.926 
02:15	68.6	68.6	68.6	91	65.9	0	0	---	0.00	29.927 
02:20	68.4	68.4	68.4	91	65.7	0	0	---	0.00	29.927 
02:25	68.3	68.3	68.3	91	65.6	0	0	---	0.00	29.927 
02:30	68.3	68.3	68.3	92	65.9	0	0	---	0.00	29.922 
02:35	68.3	68.3	68.3	92	65.9	0	0	---	0.00	29.922 
02:40	68.3	68.3	68.3	92	65.9	0	0	---	0.00	29.922 
02:45	68.1	68.1	68.1	92	65.7	0	0	---	0.00	29.920 
02:50	68.1	68.1	68.1	92	65.7	0	0	---	0.00	29.920 
02:55	67.9	67.9	67.9	92	65.5	0	0	---	0.00	29.920 
03:00	67.9	67.9	67.9	92	65.5	0	0	---	0.00	29.920 
03:05	67.8	67.8	67.8	92	65.4	0	0	---	0.00	29.920 
03:10	67.8	67.8	67.8	92	65.4	0	0	---	0.00	29.920 
03:15	67.8	67.8	67.8	93	65.7	0	0	---	0.00	29.920 
03:20	67.8	67.8	67.8	93	65.7	0	0	---	0.00	29.920 
03:25	67.8	67.8	67.8	93	65.7	0	0	---	0.00	29.920 
03:30	67.8	67.8	67.8	93	65.7	0	0	---	0.00	29.919 
03:35	67.8	67.8	67.8	93	65.7	0	0	---	0.00	29.919 
03:40	67.9	67.9	67.9	93	65.8	0	0	---	0.00	29.919 
03:45	68.1	68.1	68.1	93	66.0	0	0	---	0.00	29.917 
03:50	68.1	68.1	68.1	93	66.0	0	0	---	0.00	29.917 
03:55	68.3	68.3	68.3	93	66.2	0	0	---	0.00	29.917 
04:00	68.3	68.3	68.3	93	66.2	0	0	---	0.00	29.919 
04:05	68.3	68.3	68.3	93	66.2	0	0	---	0.00	29.919 
04:10	68.4	68.4	68.4	92	66.0	0	0	---	0.00	29.919 
04:15	68.4	68.4	68.4	92	66.0	0	0	---	0.00	29.918 
04:20	68.6	68.6	68.6	91	65.9	0	0	---	0.00	29.918 
04:25	68.6	68.6	68.6	91	65.9	0	0	---	0.00	29.918 
04:30	68.6	68.6	68.6	90	65.5	0	0	---	0.00	29.917 
04:35	68.8	68.8	68.8	90	65.7	0	0	---	0.00	29.917 
04:40	68.8	68.8	68.8	90	65.7	0	0	---	0.00	29.917 
04:45	68.8	68.8	68.8	90	65.7	0	0	---	0.00	29.918 
04:50	68.8	68.8	68.8	90	65.7	0	0	---	0.00	29.918 
04:55	68.8	68.8	68.8	90	65.7	0	0	---	0.00	29.918 
05:00	68.8	68.8	68.8	90	65.7	0	0	---	0.00	29.918 
05:05	68.8	68.8	68.8	89	65.4	0	0	---	0.00	29.918 
05:10	68.8	68.8	68.8	89	65.4	0	0	---	0.00	29.918 
05:15	68.8	68.8	68.8	89	65.4	0	0	---	0.00	29.917 
05:20	68.8	68.8	68.8	88	65.1	0	0	---	0.00	29.917 
05:25	68.9	68.9	68.9	88	65.2	0	0	---	0.00	29.917 
05:30	68.9	68.9	68.9	88	65.2	0	0	---	0.00	29.918 
05:35	68.9	68.9	68.9	88	65.2	0	0	---	0.00	29.918 
05:40	68.9	68.9	68.9	87	64.9	0	0	---	0.00	29.918 
05:45	69.1	69.1	69.1	87	65.1	0	0	---	0.00	29.917 
05:50	69.1	69.1	69.1	87	65.1	0	1	270	0.00	29.917 
05:55	69.1	69.1	69.1	87	65.1	0	0	---	0.00	29.917 
06:00	69.3	69.3	69.3	86	64.9	0	0	---	0.00	29.914 
06:05	69.3	69.3	69.3	86	64.9	0	0	---	0.00	29.914 
06:10	69.3	69.3	69.3	86	64.9	0	0	---	0.00	29.914 
06:15	69.3	69.3	69.3	86	64.9	0	0	---	0.00	29.920 
06:20	69.3	69.3	69.3	86	64.9	0	0	---	0.00	29.920 
06:25	69.1	69.1	69.1	86	64.7	0	0	---	0.00	29.920 
06:30	69.1	69.1	69.1	86	64.7	0	0	---	0.00	29.926 
06:35	69.1	69.1	69.1	86	64.7	0	0	---	0.00	29.926 
06:40	69.1	69.1	69.1	87	65.1	0	0	---	0.00	29.926 
06:45	69.1	69.1	69.1	87	65.1	0	0	---	0.00	29.934 
06:50	69.1	69.1	69.1	87	65.1	0	0	---	0.00	29.934 
06:55	69.3	69.3	69.3	87	65.3	0	0	---	0.00	29.934 
07:00	69.4	69.4	69.4	86	65.0	0	0	---	0.00	29.934 
07:05	69.6	69.6	69.6	86	65.2	0	0	---	0.00	29.934 
07:10	69.8	69.8	69.8	86	65.4	0	0	---	0.00	29.934 
07:15	70.1	70.1	70.1	86	65.7	0	0	---	0.00	29.935 
07:20	70.3	70.3	70.3	86	65.9	0	0	---	0.00	29.935 
07:25	70.6	70.6	70.6	86	66.2	0	0	---	0.00	29.935 
07:30	70.8	70.8	70.8	86	66.4	0	0	---	0.00	29.936 
07:35	71.1	71.1	71.1	85	66.4	0	1	270	0.00	29.936 
07:40	71.3	71.3	71.3	85	66.5	0	1	270	0.00	29.936 
07:45	71.6	71.6	71.6	85	66.8	0	2	270	0.00	29.939 
07:50	71.8	71.8	71.8	85	67.0	0	1	270	0.00	29.939 
07:55	72.0	72.0	72.0	85	67.2	0	1	270	0.00	29.939 
08:00	72.1	72.1	72.1	84	67.0	0	2	270	0.00	29.942 
08:05	72.3	72.3	72.3	84	67.2	0	2	270	0.00	29.942 
08:10	72.5	72.5	72.5	84	67.4	0	2	270	0.00	29.942 
08:15	72.7	72.7	72.7	84	67.6	0	3	292	0.00	29.947 
08:20	72.7	72.7	72.7	84	67.6	0	2	292	0.00	29.947 
08:25	72.8	72.8	72.8	83	67.3	0	2	270	0.00	29.947 
08:30	73.0	73.0	73.0	84	67.9	1	2	270	0.00	29.948 
08:35	73.0	73.0	73.0	84	67.9	0	2	270	0.00	29.948 
08:40	73.2	73.2	73.2	84	68.1	0	2	270	0.00	29.948 
08:45	73.3	73.3	73.3	83	67.8	0	2	22	0.00	29.950 
08:50	73.5	73.5	73.5	83	68.0	0	2	338	0.00	29.950 
08:55	73.7	73.7	73.7	83	68.2	0	1	338	0.00	29.950 
09:00	73.7	73.7	73.7	82	67.9	0	2	338	0.00	29.953 
09:05	73.9	73.9	73.9	82	68.0	0	2	338	0.00	29.953 
09:10	74.0	74.0	74.0	82	68.1	0	2	338	0.00	29.953 
09:15	74.4	74.4	74.4	82	68.5	0	2	292	0.00	29.953 
09:20	74.6	74.6	74.6	81	68.4	0	2	292	0.00	29.953 
09:25	74.7	74.7	74.7	81	68.5	1	3	45	0.00	29.953 
09:30	75.1	75.1	75.7	80	68.5	1	2	68	0.00	29.952 
09:35	75.1	75.1	75.7	80	68.5	1	2	0	0.00	29.952 
09:40	75.4	75.4	76.1	80	68.8	0	2	225	0.00	29.952 
09:45	75.6	75.6	76.5	79	68.6	1	4	112	0.00	29.951 
09:50	75.6	75.6	76.6	78	68.2	1	3	68	0.00	29.951 
09:55	75.8	75.8	76.9	78	68.4	1	3	68	0.00	29.951 
10:00	75.6	75.6	76.6	78	68.2	2	6	248	0.00	29.952 
10:05	75.4	75.4	76.3	78	68.0	1	6	248	0.00	29.952 
10:10	75.6	75.6	76.5	79	68.6	1	3	248	0.00	29.952 
10:15	75.8	75.8	76.9	78	68.4	1	3	292	0.00	29.951 
10:20	76.1	76.1	77.3	78	68.7	1	4	338	0.00	29.951 
10:25	76.3	76.3	77.6	77	68.5	2	5	270	0.00	29.951 
10:30	76.5	76.5	77.9	78	69.1	1	4	270	0.00	29.950 
10:35	76.5	76.5	77.9	77	68.7	2	5	90	0.00	29.950 
10:40	76.3	76.3	77.6	78	68.9	2	5	90	0.00	29.950 
10:45	76.0	76.0	77.1	79	69.0	1	3	90	0.00	29.949 
10:50	75.8	75.8	76.8	79	68.8	2	4	90	0.00	29.949 
10:55	75.6	75.6	76.5	79	68.6	1	4	248	0.00	29.949 
11:00	75.6	75.6	76.6	78	68.2	1	4	90	0.00	29.950 
11:05	75.6	75.6	76.6	78	68.2	1	3	338	0.00	29.950 
11:10	75.6	75.6	76.6	78	68.2	1	5	45	0.00	29.950 
11:15	75.4	75.4	76.3	78	68.0	3	6	68	0.00	29.953 
11:20	75.3	75.3	76.2	78	68.0	2	5	90	0.00	29.953 
11:25	75.3	75.3	76.2	78	68.0	2	6	248	0.00	29.953 
11:30	75.3	75.3	76.1	79	68.3	2	6	22	0.00	29.954 
11:35	75.1	75.1	75.8	79	68.1	1	3	22	0.00	29.954 
11:40	75.1	75.1	75.8	79	68.1	1	4	45	0.00	29.954 
11:45	74.9	74.9	74.9	80	68.3	1	5	90	0.00	29.955 
11:50	74.7	74.7	74.7	81	68.5	2	4	90	0.00	29.955 
11:55	74.4	74.4	74.4	83	68.9	1	3	90	0.00	29.955 
12:00	74.0	74.0	74.0	84	68.8	1	3	90	0.00	29.956 
12:05	73.9	73.9	73.9	84	68.7	1	4	45	0.00	29.956 
12:10	73.7	73.7	73.7	85	68.9	1	3	68	0.00	29.956 
12:15	73.5	73.5	73.5	86	69.0	1	3	90	0.00	29.957 
12:20	73.3	73.3	73.3	86	68.8	2	3	22	0.00	29.957 
12:25	73.2	73.2	73.2	87	69.1	2	5	90	0.01	29.957 
12:30	73.0	73.0	73.0	88	69.2	1	4	135	0.00	29.954 
12:35	72.8	72.8	72.8	88	69.0	1	3	90	0.00	29.954 
12:40	72.8	72.8	72.8	89	69.4	1	3	90	0.00	29.954 
12:45	72.7	72.7	72.7	89	69.3	2	6	90	0.00	29.946 
12:50	72.5	72.5	72.5	90	69.4	1	3	68	0.01	29.946 
12:55	72.5	72.5	72.5	90	69.4	1	4	112	0.00	29.946 
13:00	72.5	72.5	72.5	91	69.7	1	3	112	0.00	29.944 
13:05	72.5	72.5	72.5	91	69.7	1	4	90	0.00	29.944 
13:10	72.7	72.7	72.7	91	69.9	1	4	45	0.01	29.944 
13:15	72.5	72.5	72.5	91	69.7	2	5	90	0.00	29.944 
13:20	72.5	72.5	72.5	91	69.7	2	6	90	0.00	29.944 
13:25	72.5	72.5	72.5	91	69.7	2	7	90	0.00	29.944 
13:30	72.5	72.5	72.5	91	69.7	1	3	22	0.00	29.947 
13:35	72.7	72.7	72.7	91	69.9	1	4	45	0.01	29.947 
13:40	72.7	72.7	72.7	92	70.2	2	4	90	0.00	29.947 
13:45	72.7	72.7	72.7	91	69.9	1	5	22	0.00	29.954 
13:50	72.8	72.8	72.8	91	70.0	1	6	292	0.00	29.954 
13:55	72.8	72.8	72.8	92	70.3	1	6	112	0.00	29.954 
14:00	72.8	72.8	72.8	91	70.0	1	4	90	0.00	29.953 
14:05	73.0	73.0	73.0	91	70.2	1	3	45	0.00	29.953 
14:10	73.0	73.0	73.0	91	70.2	1	4	45	0.00	29.953 
14:15	73.0	73.0	73.0	91	70.2	1	3	45	0.01	29.956 
14:20	73.0	73.0	73.0	91	70.2	2	4	90	0.00	29.956 
14:25	73.0	73.0	73.0	91	70.2	1	4	45	0.02	29.956 
14:30	73.0	73.0	73.0	91	70.2	1	4	90	0.00	29.949 
14:35	72.8	72.8	72.8	92	70.3	1	3	112	0.01	29.949 
14:40	72.8	72.8	72.8	92	70.3	1	4	90	0.01	29.949 
14:45	72.8	72.8	72.8	92	70.3	2	4	90	0.00	29.946 
14:50	73.0	73.0	73.0	92	70.5	1	4	90	0.01	29.946 
14:55	73.2	73.2	73.2	92	70.7	2	5	112	0.00	29.946 
15:00	73.0	73.0	73.0	91	70.2	2	6	90	0.00	29.944 
15:05	73.3	73.3	73.3	92	70.8	1	3	90	0.00	29.944 
15:10	73.3	73.3	73.3	92	70.8	1	4	292	0.00	29.944 
15:15	73.3	73.3	73.3	91	70.5	1	4	315	0.00	29.945 
15:20	73.0	73.0	73.0	91	70.2	2	4	112	0.01	29.945 
15:25	72.8	72.8	72.8	91	70.0	1	7	45	0.00	29.945 
15:30	72.8	72.8	72.8	91	70.0	1	4	68	0.00	29.944 
15:35	72.7	72.7	72.7	91	69.9	2	4	90	0.02	29.944 
15:40	72.3	72.3	72.3	92	69.8	1	4	90	0.02	29.944 
15:45	72.3	72.3	72.3	92	69.8	1	3	90	0.05	29.944 
15:50	72.0	72.0	72.0	92	69.5	3	6	90	0.06	29.944 
15:55	71.8	71.8	71.8	93	69.7	3	9	112	0.02	29.944 
16:00	71.8	71.8	71.8	93	69.7	3	6	90	0.00	29.930 
16:05	72.0	72.0	72.0	93	69.9	2	5	112	0.01	29.930 
16:10	72.1	72.1	72.1	93	70.0	2	6	90	0.00	29.930 
16:15	72.3	72.3	72.3	93	70.2	2	5	90	0.00	29.928 
16:20	72.3	72.3	72.3	93	70.2	2	4	90	0.00	29.928 
16:25	72.3	72.3	72.3	93	70.2	2	5	112	0.00	29.928 
16:30	72.5	72.5	72.5	93	70.4	2	4	90	0.00	29.925 
16:35	72.3	72.3	72.3	93	70.2	3	6	90	0.01	29.925 
16:40	72.3	72.3	72.3	93	70.2	2	5	90	0.00	29.925 
16:45	72.3	72.3	72.3	93	70.2	2	4	112	0.01	29.919 
16:50	72.3	72.3	72.3	93	70.2	1	5	90	0.00	29.919 
16:55	72.3	72.3	72.3	93	70.2	2	6	90	0.00	29.919 
17:00	72.3	72.3	72.3	93	70.2	2	5	112	0.01	29.913 
17:05	72.3	72.3	72.3	93	70.2	0	2	112	0.00	29.913 
17:10	72.3	72.3	72.3	93	70.2	1	3	90	0.00	29.913 
17:15	72.3	72.3	72.3	93	70.2	2	5	112	0.00	29.911 
17:20	72.5	72.5	72.5	93	70.4	2	4	90	0.00	29.911 
17:25	72.5	72.5	72.5	93	70.4	1	3	112	0.00	29.911 
17:30	72.7	72.7	72.7	93	70.6	1	3	135	0.01	29.900 
17:35	72.7	72.7	72.7	93	70.6	1	3	90	0.00	29.900 
17:40	73.0	73.0	73.0	93	70.8	1	4	90	0.00	29.900 
17:45	73.0	73.0	73.0	93	70.8	1	4	112	0.00	29.896 
17:50	73.2	73.2	73.2	93	71.0	1	3	68	0.00	29.896 
17:55	73.2	73.2	73.2	92	70.7	2	4	90	0.00	29.896 
18:00	73.3	73.3	73.3	93	71.1	1	3	90	0.00	29.894 
18:05	73.3	73.3	73.3	93	71.1	1	3	90	0.00	29.894 
18:10	73.5	73.5	73.5	93	71.3	1	3	90	0.00	29.894 
18:15	73.5	73.5	73.5	92	71.0	1	3	90	0.00	29.889 
18:20	73.5	73.5	73.5	92	71.0	1	4	90	0.00	29.889 
18:25	73.5	73.5	73.5	92	71.0	1	3	112	0.00	29.889 
18:30	73.5	73.5	73.5	92	71.0	0	2	112	0.00	29.890 
18:35	73.5	73.5	73.5	92	71.0	0	3	90	0.00	29.890 
18:40	73.7	73.7	73.7	92	71.2	1	3	112	0.00	29.890 
18:45	73.5	73.5	73.5	92	71.0	1	3	90	0.00	29.884 
18:50	73.7	73.7	73.7	92	71.2	1	3	90	0.00	29.884 
18:55	73.7	73.7	73.7	92	71.2	1	3	112	0.00	29.884 
19:00	73.7	73.7	73.7	92	71.2	1	2	112	0.00	29.882 
19:05	73.7	73.7	73.7	92	71.2	1	3	90	0.00	29.882 
19:10	73.9	73.9	73.9	93	71.7	1	4	90	0.00	29.882 
19:15	74.0	74.0	74.0	93	71.8	1	2	90	0.00	29.877 
19:20	74.2	74.2	74.2	93	72.0	0	3	90	0.00	29.877 
19:25	74.4	74.4	74.4	93	72.2	0	2	90	0.00	29.877 
19:30	74.4	74.4	74.4	92	71.9	0	3	22	0.00	29.881 
19:35	74.4	74.4	74.4	92	71.9	1	3	22	0.00	29.881 
19:40	74.4	74.4	74.4	92	71.9	1	3	45	0.00	29.881 
19:45	74.4	74.4	74.4	92	71.9	1	3	270	0.00	29.882 
19:50	74.4	74.4	74.4	91	71.6	1	2	158	0.00	29.882 
19:55	74.2	74.2	74.2	92	71.7	1	4	90	0.00	29.882 
20:00	74.2	74.2	74.2	92	71.7	1	3	22	0.00	29.886 
20:05	74.2	74.2	74.2	92	71.7	1	3	45	0.00	29.886 
20:10	74.2	74.2	74.2	91	71.4	1	3	112	0.00	29.886 
20:15	74.0	74.0	74.0	91	71.2	1	5	90	0.00	29.881 
20:20	74.0	74.0	74.0	91	71.2	1	3	90	0.00	29.881 
20:25	74.0	74.0	74.0	91	71.2	2	3	90	0.00	29.881 
20:30	73.9	73.9	73.9	91	71.1	1	3	90	0.00	29.875 
20:35	73.9	73.9	73.9	92	71.4	1	5	112	0.00	29.875 
20:40	73.9	73.9	73.9	92	71.4	1	3	112	0.00	29.875 
20:45	73.9	73.9	73.9	92	71.4	1	3	112	0.00	29.873 
20:50	73.9	73.9	73.9	92	71.4	1	4	112	0.00	29.873 
20:55	73.7	73.7	73.7	92	71.2	1	3	248	0.00	29.873 
21:00	73.7	73.7	73.7	92	71.2	1	3	112	0.01	29.875 
21:05	73.7	73.7	73.7	92	71.2	1	7	68	0.01	29.875 
21:10	73.7	73.7	73.7	92	71.2	1	3	0	0.00	29.875 
21:15	73.7	73.7	73.7	92	71.2	1	3	45	0.00	29.869 
21:20	73.7	73.7	73.7	92	71.2	0	3	270	0.00	29.869 
21:25	73.5	73.5	73.5	92	71.0	1	4	248	0.00	29.869 
21:30	73.5	73.5	73.5	92	71.0	1	4	248	0.00	29.861 
21:35	73.5	73.5	73.5	92	71.0	1	4	248	0.00	29.861 
21:40	73.5	73.5	73.5	92	71.0	2	4	248	0.00	29.861 
21:45	73.5	73.5	73.5	92	71.0	1	4	270	0.00	29.866 
21:50	73.5	73.5	73.5	92	71.0	1	4	270	0.00	29.866 
21:55	73.5	73.5	73.5	92	71.0	0	4	270	0.00	29.866 
22:00	73.5	73.5	73.5	92	71.0	1	5	270	0.00	29.864 
22:05	73.5	73.5	73.5	92	71.0	1	3	0	0.00	29.864 
22:10	73.5	73.5	73.5	92	71.0	1	3	0	0.00	29.864 
22:15	73.5	73.5	73.5	92	71.0	1	4	90	0.00	29.863 
22:20	73.5	73.5	73.5	92	71.0	1	2	90	0.00	29.863 
22:25	73.5	73.5	73.5	92	71.0	1	2	90	0.00	29.863 
22:30	73.5	73.5	73.5	92	71.0	1	5	90	0.00	29.865 
22:35	73.5	73.5	73.5	92	71.0	1	3	90	0.01	29.865 
22:40	73.3	73.3	73.3	92	70.8	1	5	90	0.00	29.865 
22:45	73.3	73.3	73.3	92	70.8	1	3	112	0.00	29.869 
22:50	73.3	73.3	73.3	92	70.8	1	4	0	0.00	29.869 
22:55	73.3	73.3	73.3	92	70.8	1	3	68	0.00	29.869 
23:00	73.3	73.3	73.3	92	70.8	1	5	68	0.00	29.873 
23:05	73.3	73.3	73.3	92	70.8	1	3	90	0.00	29.873 
23:10	73.3	73.3	73.3	92	70.8	1	3	90	0.00	29.873 
23:15	73.3	73.3	73.3	92	70.8	1	4	90	0.00	29.872 
23:20	73.3	73.3	73.3	92	70.8	1	3	90	0.00	29.872 
23:25	73.3	73.3	73.3	92	70.8	1	2	90	0.00	29.872 
23:30	73.3	73.3	73.3	92	70.8	1	3	68	0.00	29.871 
23:35	73.3	73.3	73.3	92	70.8	1	3	292	0.00	29.871 
23:40	73.3	73.3	73.3	92	70.8	1	4	112	0.00	29.871 
23:45	73.3	73.3	73.3	92	70.8	1	2	112	0.00	29.866 
23:50	73.3	73.3	73.3	92	70.8	1	2	22	0.00	29.866 
23:55	73.3	73.3	73.3	92	70.8	1	4	248	0.00	29.866 

CoCoRaHS
IN-AL-39
A2 Web Hosting
Creative Commons License
GoDaddy
Look for:

loaded 2017-12-11 14:10:52 • last modified 2010-11-18 10:43:29
Privacy PolicyDisclaimer
• wx.awcolley.com is powered by PmWiki v.2002016 •
• all content (unless otherwise noted) © 2017 A W Colley